Time;durP1;ratioP1;P1;durP2;ratioP2;P2;SDS_P1;SDS_P2;PMS_P1;PMS_P2;Temp;Humidity;BMP_temperature;BMP_pressure;BME280_temperature;BME280_humidity;BME280_pressure;Samples;Min_cycle;Max_cycle;Signal;HPM_P1;HPM_P2
2023/04/17 00:01:02;;;;;;;;;;;;;;;11.89;75.82;99636.84;4472468;32;34240;-75
2023/04/17 00:03:30;;;;;;;;;;;;;;;11.21;77.74;99634.25;4481204;32;34845;-76
2023/04/17 00:05:58;;;;;;;;;;;;;;;11.41;76.96;99632.47;4475831;32;34118;-75
2023/04/17 00:08:25;;;;;;;;;;;;;;;10.99;78.99;99634.22;4472008;32;34214;-75
2023/04/17 00:10:52;;;;;;;;;;;;;;;11.51;76.99;99636.28;4471883;32;33717;-76
2023/04/17 00:13:34;;;;;;;;;;;;;;;11.48;77.21;99632.69;4480616;32;34277;-75
2023/04/17 00:16:01;;;;;;;;;;;;;;;11.82;75.88;99637.44;4475640;32;33874;-75
2023/04/17 00:18:29;;;;;;;;;;;;;;;11.84;75.29;99625.41;4474972;32;34012;-75
2023/04/17 00:20:58;;;;;;;;;;;;;;;11.41;76.70;99628.97;4471751;32;33794;-76
2023/04/17 00:23:26;;;;;;;;;;;;;;;11.42;76.87;99635.94;4451354;32;33076;-75
2023/04/17 00:25:53;;;;;;;;;;;;;;;11.38;77.14;99623.66;4474765;32;33797;-75
2023/04/17 00:28:20;;;;;;;;;;;;;;;12.40;73.18;99617.91;4473533;32;34858;-75
2023/04/17 00:30:48;;;;;;;;;;;;;;;11.59;76.07;99614.09;4472602;32;32990;-75
2023/04/17 00:33:15;;;;;;;;;;;;;;;11.73;75.03;99616.34;4476446;32;33440;-76
2023/04/17 00:35:42;;;;;;;;;;;;;;;11.30;77.69;99615.59;4463851;32;34237;-75
2023/04/17 00:38:10;;;;;;;;;;;;;;;10.94;79.63;99615.03;4468270;32;35562;-75
2023/04/17 00:40:37;;;;;;;;;;;;;;;10.82;80.21;99624.06;4471025;32;33344;-75
2023/04/17 00:43:05;;;;;;;;;;;;;;;10.84;80.36;99620.66;4479294;32;33864;-75
2023/04/17 00:45:32;;;;;;;;;;;;;;;10.85;80.59;99625.00;4471152;32;33796;-75
2023/04/17 00:47:59;;;;;;;;;;;;;;;10.81;80.48;99630.06;4455274;32;34522;-75
2023/04/17 00:50:27;;;;;;;;;;;;;;;10.69;81.02;99629.56;4477432;32;33389;-75
2023/04/17 00:52:54;;;;;;;;;;;;;;;10.90;79.97;99623.50;4456132;32;34214;-76
2023/04/17 00:55:22;;;;;;;;;;;;;;;11.27;78.31;99614.59;4460893;32;33757;-75
2023/04/17 00:57:49;;;;;;;;;;;;;;;10.77;80.72;99622.97;4476210;32;34451;-75
2023/04/17 01:00:17;;;;;;;;;;;;;;;11.98;75.20;99619.03;4475224;32;33616;-75
2023/04/17 01:02:45;;;;;;;;;;;;;;;12.17;74.35;99620.56;4474092;32;34202;-75
2023/04/17 01:05:13;;;;;;;;;;;;;;;12.23;73.74;99617.31;4463586;32;33627;-75
2023/04/17 01:07:40;;;;;;;;;;;;;;;11.92;75.84;99613.63;4461586;32;34017;-75
2023/04/17 01:10:08;;;;;;;;;;;;;;;11.71;75.81;99618.00;4459700;32;33150;-75
2023/04/17 01:12:35;;;;;;;;;;;;;;;12.10;75.00;99617.69;4468234;32;34202;-75
2023/04/17 01:15:03;;;;;;;;;;;;;;;11.43;77.67;99616.94;4467534;32;34405;-76
2023/04/17 01:17:31;;;;;;;;;;;;;;;10.87;80.38;99613.00;4466911;32;34759;-75
2023/04/17 01:19:58;;;;;;;;;;;;;;;11.10;80.23;99612.19;4468224;32;33498;-75
2023/04/17 01:22:25;;;;;;;;;;;;;;;11.18;78.72;99616.00;4459417;32;34144;-75
2023/04/17 01:24:53;;;;;;;;;;;;;;;11.41;77.64;99610.81;4464671;32;33766;-75
2023/04/17 01:27:22;;;;;;;;;;;;;;;11.78;77.06;99619.97;4468224;32;34214;-76
2023/04/17 01:29:49;;;;;;;;;;;;;;;10.89;79.71;99611.34;4467832;32;33001;-76
2023/04/17 01:32:17;;;;;;;;;;;;;;;11.48;77.87;99605.03;4468091;32;34054;-75
2023/04/17 01:34:44;;;;;;;;;;;;;;;12.01;75.60;99607.84;4461036;32;34934;-75
2023/04/17 01:37:12;;;;;;;;;;;;;;;11.74;76.53;99603.44;4469985;32;34768;-75
2023/04/17 01:39:39;;;;;;;;;;;;;;;11.29;78.58;99592.19;4468952;32;33990;-76
2023/04/17 01:42:07;;;;;;;;;;;;;;;11.63;77.49;99609.00;4468085;32;34861;-75
2023/04/17 01:44:36;;;;;;;;;;;;;;;11.61;77.38;99607.25;4469773;32;34098;-75
2023/04/17 01:47:03;;;;;;;;;;;;;;;11.67;76.70;99605.75;4469355;32;33911;-76
2023/04/17 01:49:30;;;;;;;;;;;;;;;11.80;76.29;99600.13;4470015;32;33029;-75
2023/04/17 01:51:58;;;;;;;;;;;;;;;11.43;77.40;99603.97;4465684;32;34748;-75
2023/04/17 01:54:25;;;;;;;;;;;;;;;11.13;79.05;99607.16;4470119;32;33746;-76
2023/04/17 01:56:53;;;;;;;;;;;;;;;11.33;78.93;99599.25;4469919;32;34651;-76
2023/04/17 01:59:21;;;;;;;;;;;;;;;11.74;76.82;99602.53;4469660;32;33944;-76
2023/04/17 02:01:51;;;;;;;;;;;;;;;11.15;79.70;99604.63;4470006;32;34123;-76
2023/04/17 02:04:19;;;;;;;;;;;;;;;10.88;80.32;99600.09;4469773;32;34820;-76
2023/04/17 02:06:46;;;;;;;;;;;;;;;10.77;81.28;99602.25;4468796;32;33795;-76
2023/04/17 02:09:16;;;;;;;;;;;;;;;10.74;81.75;99602.16;4467782;32;33361;-76
2023/04/17 02:11:43;;;;;;;;;;;;;;;10.28;83.54;99609.69;4453884;32;34295;-76
2023/04/17 02:14:10;;;;;;;;;;;;;;;10.37;83.39;99610.06;4467082;32;33446;-76
2023/04/17 02:16:38;;;;;;;;;;;;;;;10.23;84.37;99607.75;4456661;32;34086;-76
2023/04/17 02:19:06;;;;;;;;;;;;;;;10.26;84.24;99611.28;4446813;32;34291;-76
2023/04/17 02:21:33;;;;;;;;;;;;;;;10.40;83.71;99616.28;4456671;32;34964;-76
2023/04/17 02:24:04;;;;;;;;;;;;;;;10.33;84.30;99610.78;4454677;32;34475;-76
2023/04/17 02:26:31;;;;;;;;;;;;;;;10.42;83.69;99609.44;4440006;32;34130;-76
2023/04/17 02:28:58;;;;;;;;;;;;;;;10.78;81.68;99604.03;4454196;32;33144;-75
2023/04/17 02:31:26;;;;;;;;;;;;;;;10.64;81.83;99610.34;4453694;32;34329;-76
2023/04/17 02:33:53;;;;;;;;;;;;;;;10.77;81.33;99602.25;4460935;32;33615;-76
2023/04/17 02:36:21;;;;;;;;;;;;;;;10.67;81.88;99599.25;4454019;32;33332;-76
2023/04/17 02:38:48;;;;;;;;;;;;;;;10.50;82.40;99606.31;4454387;32;33576;-76
2023/04/17 02:41:15;;;;;;;;;;;;;;;10.68;82.04;99586.38;4454675;32;33534;-76
2023/04/17 02:43:43;;;;;;;;;;;;;;;10.71;81.74;99585.59;4454368;32;34198;-75
2023/04/17 02:46:10;;;;;;;;;;;;;;;10.85;80.26;99586.16;4454775;32;34181;-76
2023/04/17 02:48:37;;;;;;;;;;;;;;;11.43;77.64;99578.03;4452998;32;33367;-76
2023/04/17 02:51:04;;;;;;;;;;;;;;;11.59;77.04;99577.78;4458130;32;33834;-76
2023/04/17 02:53:32;;;;;;;;;;;;;;;10.74;80.37;99586.59;4445823;32;35023;-76
2023/04/17 02:55:59;;;;;;;;;;;;;;;10.80;80.34;99581.66;4445290;32;34908;-76
2023/04/17 02:58:27;;;;;;;;;;;;;;;10.76;80.92;99591.84;4463228;32;33235;-76
2023/04/17 03:01:01;;;;;;;;;;;;;;;10.68;81.35;99593.22;4458406;32;34157;-76
2023/04/17 03:03:33;;;;;;;;;;;;;;;11.13;78.90;99594.19;4451479;32;35095;-76
2023/04/17 03:06:02;;;;;;;;;;;;;;;10.62;81.95;99593.84;4454342;32;35016;-76
2023/04/17 03:08:34;;;;;;;;;;;;;;;10.79;80.69;99595.44;4454087;32;34181;-76
2023/04/17 03:11:02;;;;;;;;;;;;;;;10.71;80.71;99595.94;4460507;32;34180;-76
2023/04/17 03:13:30;;;;;;;;;;;;;;;10.82;79.61;99595.56;4469097;32;34743;-76
2023/04/17 03:15:57;;;;;;;;;;;;;;;11.18;77.85;99592.69;4468755;32;33951;-76
2023/04/17 03:18:25;;;;;;;;;;;;;;;10.76;78.95;99597.03;4469445;32;33008;-76
2023/04/17 03:20:53;;;;;;;;;;;;;;;11.28;75.43;99595.59;4469321;32;34876;-76
2023/04/17 03:23:20;;;;;;;;;;;;;;;11.40;73.28;99601.28;4469700;32;34643;-76
2023/04/17 03:25:48;;;;;;;;;;;;;;;11.29;72.48;99593.06;4469411;32;34285;-76
2023/04/17 03:28:15;;;;;;;;;;;;;;;12.34;67.75;99592.59;4468532;32;33198;-76
2023/04/17 03:30:43;;;;;;;;;;;;;;;12.70;66.37;99594.66;4469347;32;34727;-76
2023/04/17 03:33:10;;;;;;;;;;;;;;;11.58;69.63;99595.88;4469017;32;33608;-76
2023/04/17 03:35:37;;;;;;;;;;;;;;;11.71;68.91;99586.84;4468991;32;33924;-76
2023/04/17 03:38:05;;;;;;;;;;;;;;;11.47;71.53;99592.88;4469379;32;34373;-76
2023/04/17 03:40:32;;;;;;;;;;;;;;;11.81;69.14;99599.34;4468963;32;34871;-76
2023/04/17 03:43:00;;;;;;;;;;;;;;;12.81;66.68;99608.00;4469072;32;34044;-76
2023/04/17 03:45:28;;;;;;;;;;;;;;;12.00;69.66;99606.09;4462972;32;34752;-76
2023/04/17 03:47:55;;;;;;;;;;;;;;;11.76;71.04;99606.97;4468962;32;33340;-76
2023/04/17 03:50:23;;;;;;;;;;;;;;;11.40;72.91;99606.47;4454832;32;32867;-76
2023/04/17 03:52:52;;;;;;;;;;;;;;;11.36;73.62;99594.22;4469004;32;35172;-76
2023/04/17 03:55:20;;;;;;;;;;;;;;;11.57;71.78;99609.66;4465614;32;34838;-76
2023/04/17 03:57:50;;;;;;;;;;;;;;;11.81;71.18;99610.59;4465942;32;33274;-76
2023/04/17 04:00:18;;;;;;;;;;;;;;;11.90;70.31;99615.28;4450528;32;32601;-76
2023/04/17 04:02:47;;;;;;;;;;;;;;;12.18;68.80;99611.06;4467703;32;34288;-76
2023/04/17 04:05:17;;;;;;;;;;;;;;;11.91;69.27;99611.84;4453597;32;33806;-75
2023/04/17 04:07:44;;;;;;;;;;;;;;;11.63;70.09;99603.81;4427428;32;31703;-76
2023/04/17 04:10:13;;;;;;;;;;;;;;;11.83;70.50;99613.25;4438906;32;33847;-77
2023/04/17 04:12:40;;;;;;;;;;;;;;;11.69;72.01;99617.06;4430529;32;32565;-76
2023/04/17 04:15:08;;;;;;;;;;;;;;;11.85;72.73;99616.78;4458233;32;34415;-76
2023/04/17 04:17:36;;;;;;;;;;;;;;;12.22;71.17;99618.13;4467417;32;33060;-76
2023/04/17 04:20:07;;;;;;;;;;;;;;;12.91;67.91;99627.37;4466307;32;34098;-76
2023/04/17 04:22:34;;;;;;;;;;;;;;;12.65;67.75;99624.81;4466824;32;35049;-76
2023/04/17 04:25:03;;;;;;;;;;;;;;;13.20;66.33;99619.63;4461387;32;34783;-76
2023/04/17 04:27:31;;;;;;;;;;;;;;;13.27;65.31;99621.56;4465814;32;32890;-75
2023/04/17 04:30:00;;;;;;;;;;;;;;;12.87;64.81;99618.59;4466816;32;34014;-75
2023/04/17 04:32:29;;;;;;;;;;;;;;;12.67;65.93;99623.16;4467214;32;33110;-75
2023/04/17 04:34:57;;;;;;;;;;;;;;;12.54;65.50;99623.56;4466697;32;34985;-75
2023/04/17 04:37:28;;;;;;;;;;;;;;;12.57;64.12;99626.25;4463409;32;33714;-75
2023/04/17 04:40:09;;;;;;;;;;;;;;;12.88;63.05;99627.28;4466350;32;34078;-75
2023/04/17 04:42:38;;;;;;;;;;;;;;;12.82;63.06;99632.28;4466613;32;34200;-75
2023/04/17 04:45:06;;;;;;;;;;;;;;;13.23;60.68;99646.62;4466069;32;34909;-76
2023/04/17 04:47:34;;;;;;;;;;;;;;;13.35;60.38;99643.56;4466079;32;33547;-75
2023/04/17 04:50:02;;;;;;;;;;;;;;;13.55;59.54;99647.62;4451435;32;34271;-75
2023/04/17 04:52:31;;;;;;;;;;;;;;;13.38;60.02;99646.22;4459840;32;34020;-75
2023/04/17 04:54:59;;;;;;;;;;;;;;;13.17;60.29;99651.59;4455217;32;33848;-75
2023/04/17 04:57:28;;;;;;;;;;;;;;;13.37;59.76;99654.88;4467140;32;34890;-76
2023/04/17 04:59:57;;;;;;;;;;;;;;;13.50;59.22;99649.22;4461937;32;34703;-76
2023/04/17 05:02:25;;;;;;;;;;;;;;;13.69;57.75;99652.38;4467151;32;33890;-77
2023/04/17 05:04:52;;;;;;;;;;;;;;;13.38;59.46;99646.22;4467411;32;35010;-76
2023/04/17 05:07:21;;;;;;;;;;;;;;;13.10;60.13;99657.47;4466873;32;33731;-76
2023/04/17 05:09:49;;;;;;;;;;;;;;;13.34;59.58;99654.78;4471783;32;34854;-76
2023/04/17 05:12:16;;;;;;;;;;;;;;;13.49;58.63;99660.47;4468166;32;35050;-76
2023/04/17 05:14:44;;;;;;;;;;;;;;;13.98;57.05;99661.03;4476175;32;35392;-76
2023/04/17 05:17:12;;;;;;;;;;;;;;;14.08;57.69;99664.78;4474809;32;33508;-76
2023/04/17 05:19:39;;;;;;;;;;;;;;;14.33;57.11;99659.44;4468135;32;34999;-77
2023/04/17 05:22:08;;;;;;;;;;;;;;;14.54;55.64;99658.22;4469653;32;34293;-77
2023/04/17 05:24:37;;;;;;;;;;;;;;;14.11;57.95;99662.28;4470066;32;32542;-76
2023/04/17 05:27:05;;;;;;;;;;;;;;;14.22;57.19;99660.84;4460542;32;33253;-77
2023/04/17 05:29:33;;;;;;;;;;;;;;;13.45;58.78;99650.78;4472949;32;34866;-77
2023/04/17 05:32:00;;;;;;;;;;;;;;;13.74;57.99;99659.47;4477072;32;33754;-76
2023/04/17 05:34:30;;;;;;;;;;;;;;;13.45;58.00;99658.59;4443150;32;32309;-75
2023/04/17 05:36:58;;;;;;;;;;;;;;;14.43;54.57;99664.88;4455753;32;33771;-76
2023/04/17 05:39:26;;;;;;;;;;;;;;;14.11;56.44;99663.16;4469967;32;33423;-76
2023/04/17 05:41:53;;;;;;;;;;;;;;;13.88;56.36;99657.28;4470552;32;35074;-77
2023/04/17 05:44:21;;;;;;;;;;;;;;;14.57;54.93;99662.69;4466730;32;34560;-76
2023/04/17 05:46:48;;;;;;;;;;;;;;;14.01;56.88;99662.84;4459153;32;34023;-77
2023/04/17 05:49:15;;;;;;;;;;;;;;;14.66;53.99;99666.41;4463481;32;33787;-76
2023/04/17 05:51:43;;;;;;;;;;;;;;;14.49;54.71;99667.66;4462047;32;35324;-76
2023/04/17 05:54:11;;;;;;;;;;;;;;;14.83;53.54;99665.97;4461900;32;34118;-76
2023/04/17 05:56:39;;;;;;;;;;;;;;;15.32;52.76;99662.81;4462596;32;33369;-75
2023/04/17 05:59:07;;;;;;;;;;;;;;;14.83;52.78;99672.03;4457560;32;34265;-76
2023/04/17 06:01:35;;;;;;;;;;;;;;;14.34;55.83;99670.72;4459697;32;34044;-77
2023/04/17 06:04:02;;;;;;;;;;;;;;;14.95;53.61;99671.50;4458899;32;34171;-77
2023/04/17 06:06:30;;;;;;;;;;;;;;;15.24;53.53;99664.38;4461880;32;33936;-77
2023/04/17 06:08:58;;;;;;;;;;;;;;;14.91;54.23;99672.25;4450215;32;34735;-76
2023/04/17 06:11:26;;;;;;;;;;;;;;;15.54;53.44;99671.13;4469786;32;33474;-76
2023/04/17 06:13:53;;;;;;;;;;;;;;;14.83;54.11;99677.25;4469744;32;34184;-75
2023/04/17 06:16:21;;;;;;;;;;;;;;;14.83;54.32;99671.16;4468246;32;32923;-76
2023/04/17 06:18:48;;;;;;;;;;;;;;;14.68;54.90;99677.78;4458105;32;34306;-77
2023/04/17 06:21:15;;;;;;;;;;;;;;;15.37;53.28;99670.75;4469928;32;34284;-76
2023/04/17 06:23:43;;;;;;;;;;;;;;;15.51;53.27;99674.56;4470059;32;32688;-77
2023/04/17 06:26:11;;;;;;;;;;;;;;;15.03;54.39;99675.16;4469105;32;33800;-76
2023/04/17 06:28:38;;;;;;;;;;;;;;;15.09;54.86;99677.94;4468845;32;34183;-77
2023/04/17 06:31:05;;;;;;;;;;;;;;;15.32;53.25;99677.59;4469227;32;34925;-76
2023/04/17 06:33:33;;;;;;;;;;;;;;;14.68;54.91;99682.97;4469346;32;34006;-76
2023/04/17 06:36:01;;;;;;;;;;;;;;;14.71;55.43;99688.25;4469856;32;33455;-77
2023/04/17 06:38:29;;;;;;;;;;;;;;;14.77;54.70;99689.28;4469160;32;34293;-76
2023/04/17 06:40:57;;;;;;;;;;;;;;;14.70;55.12;99690.84;4469433;32;34173;-74
2023/04/17 06:43:24;;;;;;;;;;;;;;;14.87;54.77;99689.56;4467836;32;34212;-76
2023/04/17 06:45:52;;;;;;;;;;;;;;;14.75;54.51;99694.44;4469230;32;34179;-76
2023/04/17 06:48:19;;;;;;;;;;;;;;;14.85;54.49;99698.16;4469256;32;34153;-77
2023/04/17 06:50:47;;;;;;;;;;;;;;;14.72;54.67;99700.47;4451905;32;33978;-76
2023/04/17 06:53:14;;;;;;;;;;;;;;;15.04;53.87;99703.00;4457218;32;34857;-76
2023/04/17 06:55:42;;;;;;;;;;;;;;;15.12;54.05;99695.38;4457267;32;34078;-77
2023/04/17 06:58:09;;;;;;;;;;;;;;;15.16;53.04;99698.94;4462833;32;33485;-76
2023/04/17 07:00:36;;;;;;;;;;;;;;;15.50;51.88;99698.91;4454510;32;34083;-77
2023/04/17 07:03:04;;;;;;;;;;;;;;;15.03;54.03;99706.47;4468136;32;34027;-76
2023/04/17 07:05:32;;;;;;;;;;;;;;;15.00;54.51;99713.34;4468163;32;33301;-76
2023/04/17 07:07:59;;;;;;;;;;;;;;;14.90;55.13;99712.22;4455686;32;33363;-76
2023/04/17 07:10:26;;;;;;;;;;;;;;;15.05;54.34;99710.00;4468830;32;34204;-76
2023/04/17 07:12:54;;;;;;;;;;;;;;;15.44;53.21;99711.81;4468697;32;33940;-76
2023/04/17 07:15:21;;;;;;;;;;;;;;;15.29;52.81;99703.63;4468796;32;33115;-76
2023/04/17 07:17:48;;;;;;;;;;;;;;;15.37;54.02;99704.69;4469021;32;33663;-76
2023/04/17 07:20:16;;;;;;;;;;;;;;;16.01;50.91;99701.78;4467262;32;35037;-76
2023/04/17 07:22:43;;;;;;;;;;;;;;;15.79;51.47;99705.69;4468818;32;35623;-75
2023/04/17 07:25:10;;;;;;;;;;;;;;;15.72;53.20;99699.38;4467333;32;33960;-75
2023/04/17 07:27:38;;;;;;;;;;;;;;;15.83;52.94;99692.72;4469271;32;34882;-76
2023/04/17 07:30:06;;;;;;;;;;;;;;;16.00;53.64;99694.81;4469010;32;33741;-76
2023/04/17 07:32:34;;;;;;;;;;;;;;;16.37;53.43;99700.78;4464924;32;34389;-75
2023/04/17 07:35:03;;;;;;;;;;;;;;;16.26;51.36;99698.84;4444079;32;31802;-76
2023/04/17 07:37:31;;;;;;;;;;;;;;;16.45;52.06;99700.06;4469244;32;33515;-76
2023/04/17 07:39:59;;;;;;;;;;;;;;;16.18;54.06;99705.63;4468883;32;34189;-76
2023/04/17 07:42:27;;;;;;;;;;;;;;;16.81;52.11;99703.37;4469056;32;34140;-75
2023/04/17 07:44:54;;;;;;;;;;;;;;;17.02;53.17;99698.53;4469134;32;34149;-76
2023/04/17 07:47:22;;;;;;;;;;;;;;;17.44;50.84;99692.25;4468682;32;34889;-76
2023/04/17 07:49:50;;;;;;;;;;;;;;;17.71;49.74;99706.56;4469319;32;33897;-76
2023/04/17 07:52:17;;;;;;;;;;;;;;;18.32;47.79;99716.16;4463439;32;34372;-75
2023/04/17 07:54:45;;;;;;;;;;;;;;;18.42;48.32;99715.41;4469294;32;33398;-76
2023/04/17 07:57:13;;;;;;;;;;;;;;;18.30;47.56;99716.12;4468514;32;35038;-76
2023/04/17 07:59:41;;;;;;;;;;;;;;;18.58;47.03;99712.09;4467568;32;33827;-76
2023/04/17 08:02:08;;;;;;;;;;;;;;;19.40;45.24;99713.75;4469150;32;34117;-76
2023/04/17 08:04:38;;;;;;;;;;;;;;;19.67;45.12;99706.94;4469407;32;33371;-77
2023/04/17 08:07:09;;;;;;;;;;;;;;;20.96;40.44;99704.84;4455500;32;35261;-76
2023/04/17 08:09:37;;;;;;;;;;;;;;;21.39;40.21;99714.50;4460201;32;33892;-75
2023/04/17 08:12:05;;;;;;;;;;;;;;;20.43;41.72;99705.56;4464918;32;34187;-76
2023/04/17 08:14:32;;;;;;;;;;;;;;;21.15;40.27;99712.72;4460867;32;32710;-76
2023/04/17 08:17:00;;;;;;;;;;;;;;;20.85;40.75;99705.69;4465326;32;33992;-76
2023/04/17 08:19:28;;;;;;;;;;;;;;;20.88;40.42;99714.50;4467518;32;34720;-75
2023/04/17 08:22:03;;;;;;;;;;;;;;;21.24;41.85;99704.84;4454377;32;34950;-76
2023/04/17 08:24:30;;;;;;;5.22;2.47;;;;;;;21.93;39.95;99707.41;4466823;32;33535;-76
2023/04/17 08:26:58;;;;;;;4.45;2.50;;;;;;;22.37;39.02;99713.44;4466947;32;34181;-76
2023/04/17 08:29:25;;;;;;;4.85;2.40;;;;;;;21.79;39.52;99701.31;4468611;32;34326;-76
2023/04/17 08:31:53;;;;;;;3.83;2.30;;;;;;;21.17;41.29;99710.97;4468331;32;33746;-76
2023/04/17 08:34:40;;;;;;;4.25;2.33;;;;;;;21.45;41.87;99705.75;4457725;32;33095;-78
2023/04/17 08:37:09;;;;;;;4.32;2.10;;;;;;;21.98;39.69;99707.38;4460974;32;33858;-76
2023/04/17 08:39:37;;;;;;;5.75;2.33;;;;;;;22.17;38.90;99709.09;4467446;32;33934;-76
2023/04/17 08:42:09;;;;;;;6.20;2.28;;;;;;;21.85;39.00;99705.69;4467736;32;33935;-77
2023/04/17 08:44:45;;;;;;;4.03;2.03;;;;;;;21.78;39.88;99703.03;4456243;32;33171;-77
2023/04/17 08:47:13;;;;;;;5.25;2.58;;;;;;;22.24;38.76;99701.16;4466604;32;34547;-76
2023/04/17 08:49:42;;;;;;;5.00;2.50;;;;;;;21.15;41.26;99703.09;4450419;32;34269;-76
2023/04/17 08:52:10;;;;;;;5.78;2.60;;;;;;;21.24;40.83;99696.06;4458374;32;33161;-76
2023/04/17 08:54:38;;;;;;;5.37;2.67;;;;;;;21.27;41.27;99696.09;4457292;32;33448;-76
2023/04/17 08:57:24;;;;;;;4.77;2.87;;;;;;;21.14;42.13;99697.81;4466438;32;33736;-76
2023/04/17 08:59:52;;;;;;;5.75;2.67;;;;;;;21.16;41.77;99698.69;4465908;32;33716;-76
2023/04/17 09:02:20;;;;;;;4.35;2.62;;;;;;;20.85;42.49;99698.69;4466305;32;33619;-77
2023/04/17 09:04:47;;;;;;;5.32;2.47;;;;;;;20.25;43.97;99695.00;4453015;32;32960;-76
2023/04/17 09:07:16;;;;;;;5.17;2.60;;;;;;;20.36;43.55;99693.28;4441989;32;775031;-76
2023/04/17 09:09:52;;;;;;;4.83;2.50;;;;;;;20.29;43.50;99692.38;4465638;32;33876;-76
2023/04/17 09:12:22;;;;;;;4.90;2.70;;;;;;;20.48;43.02;99688.03;4474204;32;33822;-77
2023/04/17 09:14:49;;;;;;;4.20;2.30;;;;;;;20.95;43.12;99694.28;4477843;32;33167;-76
2023/04/17 09:17:19;;;;;;;5.05;2.70;;;;;;;20.09;44.20;99692.31;4473908;32;33670;-76
2023/04/17 09:20:07;;;;;;;5.35;2.70;;;;;;;19.89;44.91;99686.06;4478702;32;34255;-77
2023/04/17 09:22:36;;;;;;;4.97;2.70;;;;;;;20.03;45.43;99689.66;4479504;32;32786;-76
2023/04/17 09:25:17;;;;;;;4.40;2.47;;;;;;;19.95;45.57;99694.88;4458316;32;34155;-76
2023/04/17 09:27:45;;;;;;;4.90;2.40;;;;;;;20.40;44.48;99689.78;4453869;32;32825;-76
2023/04/17 09:30:13;;;;;;;5.28;2.53;;;;;;;20.62;43.42;99691.59;4463505;32;34579;-77
2023/04/17 09:32:41;;;;;;;4.85;2.50;;;;;;;20.81;42.43;99691.66;4466095;32;34440;-76
2023/04/17 09:35:08;;;;;;;4.50;2.50;;;;;;;20.44;42.73;99696.81;4471697;32;32667;-76
2023/04/17 09:37:53;;;;;;;3.90;2.20;;;;;;;20.25;43.31;99695.00;4467500;32;33658;-75
2023/04/17 09:40:23;;;;;;;4.82;2.45;;;;;;;20.60;43.32;99693.34;4476391;32;33413;-76
2023/04/17 09:42:57;;;;;;;4.95;2.47;;;;;;;20.65;43.59;99689.84;4468007;32;34137;-76
2023/04/17 09:45:27;;;;;;;4.73;2.40;;;;;;;20.58;44.15;99688.94;4466892;32;32924;-78
2023/04/17 09:47:54;;;;;;;4.55;2.17;;;;;;;20.50;43.32;99691.56;4466617;32;33419;-75
2023/04/17 09:50:25;;;;;;;4.43;2.27;;;;;;;20.14;43.87;99687.91;4459607;32;34258;-77
2023/04/17 09:52:54;;;;;;;4.30;2.00;;;;;;;20.06;44.37;99691.41;4466103;32;33212;-76
2023/04/17 09:55:23;;;;;;;5.00;2.00;;;;;;;20.22;44.58;99688.84;4466189;32;32760;-76
2023/04/17 09:57:55;;;;;;;3.60;1.80;;;;;;;19.93;44.38;99682.56;4453754;32;33157;-76
2023/04/17 10:00:28;;;;;;;3.90;1.60;;;;;;;20.08;45.40;99680.00;4462605;32;34355;-76
2023/04/17 10:02:57;;;;;;;3.10;1.50;;;;;;;20.32;42.12;99667.81;4445153;32;34130;-76
2023/04/17 10:05:30;;;;;;;4.05;1.62;;;;;;;20.23;42.43;99673.94;4466607;32;33178;-76
2023/04/17 10:07:58;;;;;;;3.12;1.70;;;;;;;20.49;42.05;99674.00;4465429;32;34266;-77
2023/04/17 10:10:32;;;;;;;4.80;1.90;;;;;;;20.48;42.30;99672.25;4461777;32;34318;-76
2023/04/17 10:13:06;;;;;;;4.12;2.00;;;;;;;20.64;42.15;99669.69;4466619;32;33798;-76
2023/04/17 10:15:36;;;;;;;5.07;2.00;;;;;;;20.87;41.69;99665.31;4463993;32;32552;-76
2023/04/17 10:18:18;;;;;;;2.87;1.75;;;;;;;21.12;41.75;99670.59;4438822;32;33814;-78
2023/04/17 10:20:47;;;;;;;3.03;1.77;;;;;;;21.36;39.83;99657.44;4453254;32;33042;-77
2023/04/17 10:23:34;;;;;;;3.95;2.03;;;;;;;20.96;42.23;99654.81;4464621;32;34198;-76
2023/04/17 10:26:24;;;;;;;3.78;1.90;;;;;;;21.49;42.19;99654.78;4465852;32;33195;-76
2023/04/17 10:28:53;;;;;;;3.50;1.90;;;;;;;21.31;42.06;99659.19;4457003;32;32567;-76
2023/04/17 10:31:22;;;;;;;3.30;1.65;;;;;;;21.24;40.15;99653.91;4463771;32;34628;-76
2023/04/17 10:33:52;;;;;;;4.93;2.30;;;;;;;21.19;39.38;99651.31;4453230;32;34185;-76
2023/04/17 10:36:38;;;;;;;4.78;2.10;;;;;;;21.28;39.87;99667.06;4452089;32;33879;-76
2023/04/17 10:39:12;;;;;;;3.75;2.28;;;;;;;21.25;40.53;99651.28;4466539;32;33725;-76
2023/04/17 10:42:10;;;;;;;3.42;1.98;;;;;;;20.85;40.28;99655.69;4466372;32;32906;-76
2023/04/17 10:44:40;;;;;;;3.92;2.08;;;;;;;20.79;40.05;99656.56;4452670;32;33839;-76
2023/04/17 10:47:14;;;;;;;3.47;2.08;;;;;;;20.75;41.37;99657.44;4466854;32;33327;-76
2023/04/17 10:49:59;;;;;;;4.90;2.20;;;;;;;20.96;39.98;99654.81;4450525;32;33331;-76
2023/04/17 10:52:37;;;;;;;4.20;2.20;;;;;;;20.39;41.51;99645.91;4457270;32;32892;-76
2023/04/17 10:55:31;;;;;;;5.90;2.28;;;;;;;20.50;41.24;99657.34;4456043;32;33197;-76
2023/04/17 10:58:11;;;;;;;5.07;2.35;;;;;;;20.43;42.00;99663.47;4463520;32;33332;-75
2023/04/17 11:00:49;;;;;;;5.28;2.30;;;;;;;20.55;41.98;99652.09;4459608;32;32906;-75
2023/04/17 11:03:21;;;;;;;4.55;2.22;;;;;;;20.54;41.85;99648.59;4461291;32;33511;-76
2023/04/17 11:05:50;;;;;;;4.05;2.08;;;;;;;20.36;41.53;99651.19;4455643;32;32897;-77
2023/04/17 11:08:20;;;;;;;4.87;2.47;;;;;;;20.19;41.52;99648.50;4456331;32;33335;-77
2023/04/17 11:10:52;;;;;;;5.10;2.35;;;;;;;20.53;41.73;99654.75;4465478;32;33502;-76
2023/04/17 11:13:20;;;;;;;5.30;2.42;;;;;;;20.47;42.73;99649.44;4466090;32;32934;-76
2023/04/17 11:15:49;;;;;;;5.12;2.75;;;;;;;20.01;42.91;99647.56;4466579;32;35046;-76
2023/04/17 11:18:20;;;;;;;5.93;2.50;;;;;;;20.26;42.75;99646.75;4464291;32;33201;-76
2023/04/17 11:20:48;;;;;;;4.82;2.53;;;;;;;20.02;44.52;99645.81;4464201;32;32243;-76
2023/04/17 11:23:17;;;;;;;4.28;2.58;;;;;;;20.08;43.78;99651.09;4465972;32;34458;-76
2023/04/17 11:25:46;;;;;;;6.07;2.70;;;;;;;20.10;43.23;99648.47;4465116;32;31754;-77
2023/04/17 11:28:14;;;;;;;5.63;2.60;;;;;;;19.99;43.24;99651.03;4463863;32;32777;-76
2023/04/17 11:30:43;;;;;;;5.75;2.30;;;;;;;20.09;42.73;99647.59;4463401;32;33451;-77
2023/04/17 11:33:11;;;;;;;5.50;2.80;;;;;;;19.63;43.98;99647.34;4440748;32;32782;-77
2023/04/17 11:35:40;;;;;;;4.97;2.62;;;;;;;19.60;43.84;99647.31;4465605;32;33564;-77
2023/04/17 11:38:16;;;;;;;6.32;2.80;;;;;;;19.93;43.18;99646.62;4466764;32;33156;-77
2023/04/17 11:40:48;;;;;;;5.20;3.05;;;;;;;20.03;44.04;99647.59;4457675;32;33400;-76
2023/04/17 11:43:16;;;;;;;4.75;2.92;;;;;;;20.03;43.23;99643.19;4466333;32;33372;-75
2023/04/17 11:45:45;;;;;;;4.85;2.80;;;;;;;19.98;43.40;99647.53;4466450;32;33469;-75
2023/04/17 11:48:14;;;;;;;5.15;3.03;;;;;;;19.54;44.88;99647.28;4462817;32;33375;-76
2023/04/17 11:50:43;;;;;;;5.43;2.90;;;;;;;19.53;44.58;99645.50;4466077;32;34192;-76
2023/04/17 11:53:15;;;;;;;6.03;3.37;;;;;;;19.47;44.40;99650.75;4466520;32;33298;-76
2023/04/17 11:55:44;;;;;;;4.73;2.80;;;;;;;19.47;44.67;99645.47;4452441;32;32983;-76
2023/04/17 11:58:13;;;;;;;4.60;2.37;;;;;;;20.31;43.32;99651.16;4457093;32;33061;-75
2023/04/17 12:00:41;;;;;;;3.83;2.10;;;;;;;19.79;43.58;99651.84;4465808;32;33906;-75
2023/04/17 12:03:35;;;;;;;4.62;2.17;;;;;;;19.89;42.82;99651.88;4466096;32;33522;-75
2023/04/17 12:06:05;;;;;;;4.70;2.27;;;;;;;19.74;43.53;99650.94;4465494;32;33587;-75
2023/04/17 12:08:43;;;;;;;5.40;2.20;;;;;;;19.87;43.25;99648.38;4451520;32;33851;-76
2023/04/17 12:11:24;;;;;;;4.70;2.12;;;;;;;19.98;43.04;99646.66;4465400;32;32976;-74
2023/04/17 12:13:52;;;;;;;4.12;2.37;;;;;;;20.09;43.60;99650.22;4464730;32;33128;-76
2023/04/17 12:16:23;;;;;;;4.05;2.20;;;;;;;20.04;43.61;99646.69;4461998;32;33713;-76
2023/04/17 12:18:51;;;;;;;3.72;2.10;;;;;;;20.07;43.43;99649.34;4465252;32;33030;-76
2023/04/17 12:21:19;;;;;;;4.43;2.15;;;;;;;20.04;43.07;99644.06;4461738;32;33788;-77
2023/04/17 12:23:47;;;;;;;4.62;2.00;;;;;;;20.43;42.87;99647.69;4448285;32;33629;-74
2023/04/17 12:26:15;;;;;;;4.73;2.17;;;;;;;20.82;42.98;99646.00;4463792;32;34483;-77
2023/04/17 12:28:43;;;;;;;4.62;2.30;;;;;;;20.48;42.15;99643.31;4452766;32;31454;-77
2023/04/17 12:31:11;;;;;;;4.40;2.28;;;;;;;20.86;41.75;99644.25;4464876;32;33903;-78